createdAt,value
2022-10-05T00:02:20.941Z,2.80
2022-10-05T00:04:48.495Z,2.58
2022-10-05T00:07:20.112Z,2.88
2022-10-05T00:09:55.798Z,2.45
2022-10-05T00:12:23.160Z,2.70
2022-10-05T00:14:51.484Z,2.60
2022-10-05T00:17:20.420Z,2.55
2022-10-05T00:19:51.963Z,2.50
2022-10-05T00:22:24.037Z,2.38
2022-10-05T00:24:55.353Z,2.85
2022-10-05T00:27:26.644Z,3.07
2022-10-05T00:29:54.629Z,3.30
2022-10-05T00:32:21.055Z,3.40
2022-10-05T00:34:47.683Z,3.65
2022-10-05T00:37:14.177Z,3.13
2022-10-05T00:39:40.805Z,3.20
2022-10-05T00:42:16.273Z,3.40
2022-10-05T00:44:50.965Z,3.67
2022-10-05T00:47:30.033Z,3.30
2022-10-05T00:50:33.946Z,3.45
2022-10-05T00:53:54.215Z,4.10
2022-10-05T00:57:04.255Z,3.22
2022-10-05T00:59:46.841Z,3.10
2022-10-05T01:02:23.251Z,3.60
2022-10-05T01:05:00.121Z,3.85
2022-10-05T01:07:35.689Z,2.93
2022-10-05T01:10:18.187Z,3.22
2022-10-05T01:13:04.847Z,3.30
2022-10-05T01:15:37.325Z,3.00
2022-10-05T01:18:11.588Z,3.00
2022-10-05T01:21:04.960Z,2.50
2022-10-05T01:24:18.951Z,3.25
2022-10-05T01:27:09.792Z,3.08
2022-10-05T01:29:39.321Z,3.47
2022-10-05T01:32:12.936Z,3.08
2022-10-05T01:34:43.292Z,3.13
2022-10-05T01:37:37.841Z,3.20
2022-10-05T01:40:22.520Z,3.00
2022-10-05T01:43:07.025Z,3.10
2022-10-05T01:45:52.373Z,3.25
2022-10-05T01:48:44.981Z,3.83
2022-10-05T01:51:37.404Z,2.90
2022-10-05T01:54:31.119Z,3.10
2022-10-05T01:57:08.776Z,2.88
2022-10-05T01:59:50.338Z,4.32
2022-10-05T02:02:19.300Z,2.90
2022-10-05T02:05:04.696Z,3.83
2022-10-05T02:07:40.007Z,3.35
2022-10-05T02:10:18.941Z,3.20
2022-10-05T02:12:46.287Z,3.95
2022-10-05T02:15:16.586Z,3.50
2022-10-05T02:17:49.296Z,3.28
2022-10-05T02:20:25.258Z,3.70
2022-10-05T02:22:54.491Z,3.67
2022-10-05T02:25:30.390Z,3.47
2022-10-05T02:28:00.444Z,3.67
2022-10-05T02:30:27.890Z,3.65
2022-10-05T02:32:58.528Z,3.60
2022-10-05T02:35:24.997Z,3.92
2022-10-05T02:38:14.744Z,4.00
2022-10-05T02:41:46.265Z,3.90
2022-10-05T02:44:34.510Z,3.40
2022-10-05T02:47:10.173Z,4.05
2022-10-05T02:49:45.356Z,5.00
2022-10-05T02:52:19.203Z,4.47
2022-10-05T02:55:03.684Z,4.53
2022-10-05T02:57:38.175Z,4.18
2022-10-05T03:00:16.818Z,3.72
2022-10-05T03:03:03.325Z,4.20
2022-10-05T03:05:35.542Z,3.97
2022-10-05T03:08:07.946Z,3.83
2022-10-05T03:10:40.076Z,3.78
2022-10-05T03:13:13.346Z,3.70
2022-10-05T03:15:59.612Z,3.92
2022-10-05T03:18:38.299Z,3.70
2022-10-05T03:21:32.143Z,3.90
2022-10-05T03:24:10.965Z,4.30
2022-10-05T03:26:49.667Z,3.97
2022-10-05T03:29:44.460Z,3.80
2022-10-05T03:32:19.942Z,3.70
2022-10-05T03:34:49.037Z,4.27
2022-10-05T03:37:43.167Z,3.95
2022-10-05T03:40:33.971Z,4.07
2022-10-05T03:43:30.613Z,3.88
2022-10-05T03:46:05.439Z,4.35
2022-10-05T03:48:49.741Z,4.13
2022-10-05T03:51:24.667Z,3.90
2022-10-05T03:53:59.303Z,4.03
2022-10-05T03:56:35.532Z,4.10
2022-10-05T03:59:21.150Z,4.20
2022-10-05T04:02:01.943Z,4.20
2022-10-05T04:04:39.950Z,4.60
2022-10-05T04:07:10.966Z,4.22
2022-10-05T04:09:41.113Z,3.88
2022-10-05T04:12:25.463Z,3.70
2022-10-05T04:14:59.191Z,3.80
2022-10-05T04:17:35.931Z,4.18
2022-10-05T04:20:06.199Z,3.85
2022-10-05T04:22:39.316Z,4.07
2022-10-05T04:25:25.300Z,3.97
2022-10-05T04:28:10.465Z,4.03
2022-10-05T04:30:39.641Z,3.88
2022-10-05T04:33:16.042Z,4.07
2022-10-05T04:36:15.660Z,4.03
2022-10-05T04:38:59.353Z,3.80
2022-10-05T04:41:49.714Z,4.90
2022-10-05T04:44:47.276Z,3.97
2022-10-05T04:47:49.677Z,4.38
2022-10-05T04:50:23.986Z,4.18
2022-10-05T04:53:13.339Z,4.25
2022-10-05T04:55:52.298Z,4.73
2022-10-05T04:58:27.622Z,4.25
2022-10-05T05:01:25.743Z,4.50
2022-10-05T05:04:12.283Z,4.60
2022-10-05T05:06:57.529Z,5.10
2022-10-05T05:09:45.441Z,4.57
2022-10-05T05:12:23.959Z,4.70
2022-10-05T05:15:06.114Z,4.40
2022-10-05T05:17:33.842Z,4.47
2022-10-05T05:20:24.541Z,4.35
2022-10-05T05:23:22.454Z,4.77
2022-10-05T05:26:21.270Z,4.47
2022-10-05T05:29:05.471Z,5.35
2022-10-05T05:31:46.273Z,4.50
2022-10-05T05:34:51.576Z,5.55
2022-10-05T05:37:36.583Z,4.57
2022-10-05T05:40:26.363Z,5.00
2022-10-05T05:43:02.608Z,4.63
2022-10-05T05:45:46.500Z,4.70
2022-10-05T05:48:18.062Z,5.28
2022-10-05T05:51:01.695Z,4.93
2022-10-05T05:53:35.556Z,4.65
2022-10-05T05:56:24.342Z,4.95
2022-10-05T05:58:55.063Z,4.47
2022-10-05T06:01:40.701Z,5.13
2022-10-05T06:04:28.561Z,4.50
2022-10-05T06:06:57.140Z,4.70
2022-10-05T06:09:38.199Z,4.38
2022-10-05T06:12:12.692Z,4.47
2022-10-05T06:14:53.059Z,4.30
2022-10-05T06:17:39.026Z,4.67
2022-10-05T06:20:14.030Z,4.57
2022-10-05T06:22:43.545Z,5.07
2022-10-05T06:25:12.994Z,4.82
2022-10-05T06:28:03.165Z,4.57
2022-10-05T06:30:51.472Z,4.60
2022-10-05T06:33:28.580Z,4.55
2022-10-05T06:36:02.989Z,4.75
2022-10-05T06:39:01.919Z,4.57
2022-10-05T06:42:13.671Z,4.90
2022-10-05T06:44:49.638Z,4.30
2022-10-05T06:47:29.994Z,5.15
2022-10-05T06:50:05.500Z,4.90
2022-10-05T06:53:07.532Z,5.03
2022-10-05T06:56:02.774Z,5.50
2022-10-05T06:58:54.457Z,4.43
2022-10-05T07:01:55.157Z,4.82
2022-10-05T07:04:39.218Z,4.70
2022-10-05T07:07:32.912Z,5.13
2022-10-05T07:10:17.272Z,4.70
2022-10-05T07:12:58.312Z,4.70
2022-10-05T07:15:43.094Z,4.30
2022-10-05T07:18:15.582Z,4.45
2022-10-05T07:21:07.871Z,4.40
2022-10-05T07:23:48.240Z,4.70
2022-10-05T07:26:41.472Z,4.40
2022-10-05T07:29:07.866Z,4.85
2022-10-05T07:32:03.283Z,4.38
2022-10-05T07:34:50.402Z,4.30
2022-10-05T07:37:55.233Z,4.30
2022-10-05T07:40:28.252Z,4.20
2022-10-05T07:43:00.993Z,4.43
2022-10-05T07:45:53.567Z,4.57
2022-10-05T07:48:24.221Z,4.38
2022-10-05T07:50:56.282Z,5.10
2022-10-05T07:53:26.998Z,4.63
2022-10-05T07:55:55.080Z,5.05
2022-10-05T07:58:31.346Z,4.85
2022-10-05T08:01:08.808Z,4.43
2022-10-05T08:03:52.377Z,4.65
2022-10-05T08:06:39.988Z,5.30
2022-10-05T08:09:09.905Z,4.90
2022-10-05T08:11:45.329Z,5.03
2022-10-05T08:14:40.275Z,5.15
2022-10-05T08:17:15.942Z,4.80
2022-10-05T08:20:03.683Z,4.23
2022-10-05T08:22:35.203Z,4.10
2022-10-05T08:25:14.658Z,4.30
2022-10-05T08:27:58.969Z,4.15
2022-10-05T08:30:25.490Z,4.90
2022-10-05T08:33:12.559Z,4.03
2022-10-05T08:35:44.001Z,4.43
2022-10-05T08:38:19.876Z,4.43
2022-10-05T08:41:11.889Z,4.18
2022-10-05T08:43:44.500Z,4.80
2022-10-05T08:46:17.750Z,4.27
2022-10-05T08:49:09.996Z,4.70
2022-10-05T08:52:01.868Z,4.10
2022-10-05T08:54:35.784Z,3.80
2022-10-05T08:57:17.536Z,3.50
2022-10-05T08:59:52.893Z,4.63
2022-10-05T09:02:42.896Z,4.10
2022-10-05T09:05:15.186Z,3.65
2022-10-05T09:08:26.841Z,3.83
2022-10-05T09:11:01.284Z,4.47
2022-10-05T09:13:36.799Z,4.00
2022-10-05T09:16:17.572Z,4.30
2022-10-05T09:18:59.838Z,4.78
2022-10-05T09:21:32.176Z,3.85
2022-10-05T09:24:28.752Z,4.35
2022-10-05T09:26:59.169Z,3.40
2022-10-05T09:29:53.676Z,4.00
2022-10-05T09:32:45.079Z,3.92
2022-10-05T09:35:29.891Z,4.18
2022-10-05T09:38:31.719Z,4.20
2022-10-05T09:41:24.025Z,4.90
2022-10-05T09:44:03.877Z,4.10
2022-10-05T09:46:48.854Z,4.60
2022-10-05T09:49:36.718Z,4.25
2022-10-05T09:52:18.781Z,4.53
2022-10-05T09:55:14.127Z,4.10
2022-10-05T09:57:56.866Z,4.20
2022-10-05T10:00:38.492Z,4.57
2022-10-05T10:03:27.561Z,4.80
2022-10-05T10:06:00.241Z,3.75
2022-10-05T10:08:52.057Z,3.80
2022-10-05T10:11:28.942Z,4.05
2022-10-05T10:14:33.986Z,4.03
2022-10-05T10:17:16.650Z,4.22
2022-10-05T10:20:13.291Z,4.20
2022-10-05T10:22:56.191Z,3.83
2022-10-05T10:25:42.897Z,3.90
2022-10-05T10:28:35.717Z,3.60
2022-10-05T10:31:17.877Z,3.80
2022-10-05T10:33:47.307Z,3.75
2022-10-05T10:36:26.623Z,4.33
2022-10-05T10:38:55.693Z,4.53
2022-10-05T10:41:49.376Z,4.38
2022-10-05T10:44:53.266Z,4.35
2022-10-05T10:47:35.628Z,3.83
2022-10-05T10:50:33.233Z,3.97
2022-10-05T10:53:50.744Z,3.55
2022-10-05T10:56:30.005Z,3.92
2022-10-05T10:59:25.541Z,3.38
2022-10-05T11:02:19.162Z,4.00
2022-10-05T11:04:58.594Z,3.70
2022-10-05T11:07:39.915Z,3.75
2022-10-05T11:10:37.241Z,3.80
2022-10-05T11:13:15.904Z,3.78
2022-10-05T11:16:21.540Z,4.07
2022-10-05T11:19:24.889Z,3.60
2022-10-05T11:22:13.319Z,4.07
2022-10-05T11:24:58.000Z,3.80
2022-10-05T11:27:24.477Z,3.40
2022-10-05T11:30:09.278Z,3.17
2022-10-05T11:32:50.974Z,3.97
2022-10-05T11:35:45.434Z,4.28
2022-10-05T11:38:27.157Z,4.07
2022-10-05T11:41:33.013Z,3.60
2022-10-05T11:44:15.452Z,3.88
2022-10-05T11:47:27.972Z,4.20
2022-10-05T11:50:09.620Z,4.10
2022-10-05T11:52:44.893Z,3.60
2022-10-05T11:55:20.478Z,3.75
2022-10-05T11:57:58.659Z,3.53
2022-10-05T12:00:32.640Z,3.70
2022-10-05T12:03:12.991Z,3.75
2022-10-05T12:06:02.861Z,3.70
2022-10-05T12:08:29.551Z,3.88
2022-10-05T12:11:14.909Z,3.47
2022-10-05T12:13:51.212Z,4.07
2022-10-05T12:16:23.714Z,4.20
2022-10-05T12:18:56.485Z,4.05
2022-10-05T12:21:32.927Z,3.80
2022-10-05T12:24:16.789Z,3.40
2022-10-05T12:27:04.375Z,3.63
2022-10-05T12:29:44.855Z,3.58
2022-10-05T12:32:46.203Z,3.58
2022-10-05T12:35:43.971Z,3.45
2022-10-05T12:38:50.991Z,3.92
2022-10-05T12:41:40.395Z,4.23
2022-10-05T12:44:44.683Z,4.35
2022-10-05T12:47:17.008Z,4.20
2022-10-05T12:50:13.655Z,4.25
2022-10-05T12:52:55.966Z,3.58
2022-10-05T12:55:27.688Z,3.47
2022-10-05T12:58:05.261Z,3.40
2022-10-05T13:00:35.643Z,3.60
2022-10-05T13:03:12.928Z,4.20
2022-10-05T13:05:58.951Z,3.83
2022-10-05T13:09:03.283Z,3.73
2022-10-05T13:11:49.800Z,3.50
2022-10-05T13:14:56.315Z,3.30
2022-10-05T13:17:54.915Z,3.58
2022-10-05T13:20:43.140Z,3.47
2022-10-05T13:23:14.943Z,3.30
2022-10-05T13:25:55.145Z,3.33
2022-10-05T13:28:31.955Z,4.10
2022-10-05T13:31:04.417Z,3.40
2022-10-05T13:33:40.365Z,3.63
2022-10-05T13:36:22.491Z,3.57
2022-10-05T13:38:58.410Z,3.95
2022-10-05T13:41:53.968Z,4.15
2022-10-05T13:44:32.392Z,3.33
2022-10-05T13:47:25.671Z,5.20
2022-10-05T13:50:06.237Z,3.80
2022-10-05T13:53:10.245Z,2.50
2022-10-05T13:55:40.690Z,4.22
2022-10-05T13:58:28.684Z,3.72
2022-10-05T14:00:58.318Z,3.58
2022-10-05T14:03:27.469Z,3.80
2022-10-05T14:05:59.318Z,3.85
2022-10-05T14:08:29.367Z,4.07
2022-10-05T14:10:56.972Z,3.53
2022-10-05T14:13:32.582Z,3.92
2022-10-05T14:16:18.516Z,4.40
2022-10-05T14:18:55.366Z,3.55
2022-10-05T14:21:26.947Z,3.83
2022-10-05T14:23:53.712Z,3.70
2022-10-05T14:26:26.340Z,4.10
2022-10-05T14:29:02.153Z,3.90
2022-10-05T14:31:31.371Z,3.60
2022-10-05T14:34:21.922Z,4.07
2022-10-05T14:36:56.300Z,3.70
2022-10-05T14:39:27.910Z,4.05
2022-10-05T14:41:54.646Z,4.00
2022-10-05T14:44:24.062Z,4.38
2022-10-05T14:46:56.458Z,3.72
2022-10-05T14:49:36.173Z,4.40
2022-10-05T14:52:32.471Z,4.07
2022-10-05T14:55:04.408Z,3.87
2022-10-05T14:57:39.867Z,4.07
2022-10-05T15:00:17.099Z,4.35
2022-10-05T15:03:09.227Z,4.60
2022-10-05T15:05:45.980Z,4.47
2022-10-05T15:08:37.872Z,4.63
2022-10-05T15:11:12.791Z,4.60
2022-10-05T15:13:42.036Z,5.05
2022-10-05T15:16:31.352Z,4.18
2022-10-05T15:19:16.623Z,4.72
2022-10-05T15:22:31.749Z,5.20
2022-10-05T15:25:11.624Z,4.47
2022-10-05T15:28:02.036Z,4.57
2022-10-05T15:30:28.790Z,5.00
2022-10-05T15:33:15.497Z,4.18
2022-10-05T15:35:56.687Z,5.00
2022-10-05T15:38:25.704Z,4.18
2022-10-05T15:40:59.042Z,4.85
2022-10-05T15:43:26.520Z,5.00
2022-10-05T15:46:01.585Z,4.75
2022-10-05T15:48:43.776Z,5.70
2022-10-05T15:51:22.568Z,5.68
2022-10-05T15:54:14.143Z,5.43
2022-10-05T15:56:47.976Z,5.78
2022-10-05T15:59:18.578Z,5.30
2022-10-05T16:01:51.786Z,5.63
2022-10-05T16:04:23.744Z,5.55
2022-10-05T16:07:17.191Z,5.60
2022-10-05T16:09:46.630Z,5.18
2022-10-05T16:12:31.121Z,6.00
2022-10-05T16:15:20.227Z,5.27
2022-10-05T16:18:13.486Z,5.68
2022-10-05T16:20:42.952Z,5.22
2022-10-05T16:23:34.218Z,6.03
2022-10-05T16:26:15.758Z,5.68
2022-10-05T16:28:42.103Z,6.07
2022-10-05T16:31:16.422Z,6.25
2022-10-05T16:34:00.500Z,6.97
2022-10-05T16:37:08.334Z,7.05
2022-10-05T16:39:49.335Z,7.82
2022-10-05T16:42:41.450Z,7.23
2022-10-05T16:45:23.948Z,6.88
2022-10-05T16:48:13.632Z,7.32
2022-10-05T16:50:54.902Z,7.85
2022-10-05T16:53:26.240Z,7.80
2022-10-05T16:55:57.169Z,8.70
2022-10-05T16:58:42.803Z,8.13
2022-10-05T17:01:31.781Z,8.35
2022-10-05T17:04:23.988Z,7.95
2022-10-05T17:07:11.061Z,8.57
2022-10-05T17:09:43.660Z,9.10
2022-10-05T17:12:29.404Z,8.13
2022-10-05T17:15:20.907Z,8.00
2022-10-05T17:17:58.437Z,7.95
2022-10-05T17:20:40.183Z,8.32
2022-10-05T17:23:59.484Z,8.13
2022-10-05T17:26:57.198Z,7.95
2022-10-05T17:29:47.649Z,8.50
2022-10-05T17:32:17.160Z,8.70
2022-10-05T17:35:18.143Z,9.27
2022-10-05T17:38:41.736Z,8.73
2022-10-05T17:41:24.280Z,9.30
2022-10-05T17:44:16.087Z,8.73
2022-10-05T17:46:56.794Z,9.48
2022-10-05T17:49:39.847Z,10.02
2022-10-05T17:52:46.487Z,9.83
2022-10-05T17:55:39.350Z,10.00
2022-10-05T17:58:24.625Z,11.10
2022-10-05T18:00:57.133Z,9.60
2022-10-05T18:03:42.268Z,9.27
2022-10-05T18:06:24.376Z,9.27
2022-10-05T18:09:10.660Z,10.25
2022-10-05T18:11:40.616Z,9.88
2022-10-05T18:14:19.087Z,9.38
2022-10-05T18:17:11.809Z,8.98
2022-10-05T18:19:39.501Z,9.17
2022-10-05T18:22:18.247Z,9.80
2022-10-05T18:25:09.502Z,10.05
2022-10-05T18:27:53.109Z,9.55
2022-10-05T18:30:22.393Z,9.20
2022-10-05T18:33:08.842Z,10.87
2022-10-05T18:35:57.107Z,9.52
2022-10-05T18:38:48.514Z,9.30
2022-10-05T18:41:28.874Z,8.65
2022-10-05T18:44:12.008Z,9.32
2022-10-05T18:47:00.326Z,9.53
2022-10-05T18:49:26.725Z,9.40
2022-10-05T18:51:56.158Z,9.13
2022-10-05T18:54:54.954Z,8.90
2022-10-05T18:57:46.894Z,9.90
2022-10-05T19:00:19.530Z,11.63
2022-10-05T19:03:14.918Z,12.40
2022-10-05T19:05:48.822Z,12.10
2022-10-05T19:08:24.308Z,11.73
2022-10-05T19:10:55.661Z,12.75
2022-10-05T19:13:50.964Z,11.30
2022-10-05T19:16:43.754Z,10.68
2022-10-05T19:19:38.714Z,10.60
2022-10-05T19:22:14.331Z,13.52
2022-10-05T19:24:47.980Z,10.65
2022-10-05T19:27:38.946Z,10.67
2022-10-05T19:30:18.792Z,11.18
2022-10-05T19:32:52.936Z,10.27
2022-10-05T19:35:27.680Z,9.63
2022-10-05T19:38:20.194Z,10.40
2022-10-05T19:40:53.129Z,10.00
2022-10-05T19:43:38.474Z,10.38
2022-10-05T19:46:20.564Z,11.27
2022-10-05T19:48:54.811Z,10.35
2022-10-05T19:51:25.369Z,10.57
2022-10-05T19:53:55.938Z,12.73
2022-10-05T19:56:25.394Z,11.70
2022-10-05T19:58:56.533Z,10.52
2022-10-05T20:01:31.303Z,11.13
2022-10-05T20:03:58.232Z,10.55
2022-10-05T20:06:26.770Z,10.90
2022-10-05T20:08:54.462Z,11.07
2022-10-05T20:11:22.742Z,12.02
2022-10-05T20:13:52.069Z,11.68
2022-10-05T20:16:37.308Z,11.10
2022-10-05T20:19:47.622Z,11.83
2022-10-05T20:22:36.512Z,11.68
2022-10-05T20:25:06.765Z,11.30
2022-10-05T20:27:46.595Z,11.90
2022-10-05T20:30:18.465Z,13.15
2022-10-05T20:32:52.260Z,12.13
2022-10-05T20:35:22.175Z,10.57
2022-10-05T20:37:49.991Z,11.10
2022-10-05T20:40:19.234Z,11.30
2022-10-05T20:42:46.196Z,11.00
2022-10-05T20:45:13.289Z,11.63
2022-10-05T20:47:40.492Z,11.95
2022-10-05T20:50:11.554Z,11.07
2022-10-05T20:52:38.337Z,10.88
2022-10-05T20:55:06.661Z,10.93
2022-10-05T20:57:33.222Z,11.43
2022-10-05T20:59:59.779Z,10.55
2022-10-05T21:02:26.349Z,11.63
2022-10-05T21:04:52.858Z,11.77
2022-10-05T21:07:23.316Z,11.23
2022-10-05T21:09:49.816Z,11.30
2022-10-05T21:12:16.505Z,10.57
2022-10-05T21:14:43.121Z,11.32
2022-10-05T21:17:10.475Z,11.02
2022-10-05T21:19:40.420Z,11.35
2022-10-05T21:22:08.528Z,11.23
2022-10-05T21:24:39.305Z,11.68
2022-10-05T21:27:06.507Z,11.45
2022-10-05T21:29:34.222Z,11.05
2022-10-05T21:32:01.037Z,11.32
2022-10-05T21:34:28.900Z,11.17
2022-10-05T21:36:55.376Z,11.02
2022-10-05T21:39:21.979Z,11.52
2022-10-05T21:41:49.811Z,10.40
2022-10-05T21:44:16.626Z,11.55
2022-10-05T21:46:43.145Z,11.13
2022-10-05T21:49:09.850Z,11.02
2022-10-05T21:51:36.701Z,10.85
2022-10-05T21:54:08.330Z,10.63
2022-10-05T21:56:36.317Z,10.00
2022-10-05T21:59:05.096Z,10.10
2022-10-05T22:01:31.641Z,10.02
2022-10-05T22:03:58.125Z,9.88
2022-10-05T22:06:24.782Z,9.40
2022-10-05T22:08:51.268Z,10.18
2022-10-05T22:11:17.930Z,9.57
2022-10-05T22:13:50.138Z,9.57
2022-10-05T22:16:19.480Z,10.25
2022-10-05T22:18:48.419Z,9.18
2022-10-05T22:21:15.316Z,9.85
2022-10-05T22:23:43.365Z,9.17
2022-10-05T22:26:11.354Z,10.07
2022-10-05T22:28:39.029Z,9.45
2022-10-05T22:31:06.932Z,9.02
2022-10-05T22:33:33.996Z,8.43
2022-10-05T22:36:01.369Z,8.93
2022-10-05T22:38:30.289Z,7.75
2022-10-05T22:40:57.095Z,8.48
2022-10-05T22:43:23.623Z,9.07
2022-10-05T22:45:50.161Z,8.77
2022-10-05T22:48:16.631Z,8.27
2022-10-05T22:50:46.664Z,8.00
2022-10-05T22:53:13.880Z,8.75
2022-10-05T22:55:40.653Z,8.90
2022-10-05T22:58:07.130Z,8.95
2022-10-05T23:00:56.292Z,8.70
2022-10-05T23:03:20.035Z,7.93
2022-10-05T23:05:46.502Z,8.77
2022-10-05T23:08:14.262Z,9.23
2022-10-05T23:10:40.718Z,8.48
2022-10-05T23:13:08.752Z,8.10
2022-10-05T23:15:35.837Z,7.95
2022-10-05T23:18:02.295Z,7.82
2022-10-05T23:20:29.114Z,8.63
2022-10-05T23:22:55.547Z,7.95
2022-10-05T23:25:22.234Z,7.60
2022-10-05T23:27:48.716Z,7.57
2022-10-05T23:30:15.155Z,7.63
2022-10-05T23:32:42.867Z,7.28
2022-10-05T23:35:11.555Z,7.15
2022-10-05T23:37:43.047Z,6.73
2022-10-05T23:40:12.545Z,8.05
2022-10-05T23:42:40.152Z,7.30
2022-10-05T23:45:08.523Z,6.30
2022-10-05T23:47:34.987Z,7.07
2022-10-05T23:50:01.647Z,6.80
2022-10-05T23:52:28.091Z,7.25
2022-10-05T23:54:54.788Z,7.10
2022-10-05T23:57:21.256Z,7.32
2022-10-05T23:59:50.232Z,6.63
